Time;durP1;ratioP1;P1;durP2;ratioP2;P2;SDS_P1;SDS_P2;PMS_P1;PMS_P2;Temp;Humidity;BMP_temperature;BMP_pressure;BME280_temperature;BME280_humidity;BME280_pressure;Samples;Min_cycle;Max_cycle;Signal;HPM_P1;HPM_P2
2023/04/28 00:01:59;;;;;;;15.15;12.40;;;;;;;;;;5059094;28;20428;-83
2023/04/28 00:04:25;;;;;;;18.27;12.20;;;;;;;;;;5050553;28;20899;-83
2023/04/28 00:06:54;;;;;;;16.63;12.00;;;;;;;;;;5051942;28;20405;-82
2023/04/28 00:09:20;;;;;;;17.30;12.30;;;;;;;;;;5050584;28;20914;-83
2023/04/28 00:11:48;;;;;;;16.65;12.75;;;;;;;;;;5047849;28;20436;-80
2023/04/28 00:14:14;;;;;;;16.17;12.00;;;;;;;;;;5052097;28;20432;-81
2023/04/28 00:16:40;;;;;;;15.68;12.18;;;;;;;;;;5052153;28;20919;-80
2023/04/28 00:19:07;;;;;;;15.77;12.70;;;;;;;;;;5051378;28;20785;-83
2023/04/28 00:21:33;;;;;;;17.77;12.00;;;;;;;;;;5048028;28;20847;-83
2023/04/28 00:24:00;;;;;;;19.45;12.88;;;;;;;;;;5052132;28;20795;-83
2023/04/28 00:26:26;;;;;;;17.73;12.73;;;;;;;;;;5050833;28;20794;-83
2023/04/28 00:28:54;;;;;;;17.40;12.35;;;;;;;;;;5054572;28;20933;-82
2023/04/28 00:31:20;;;;;;;15.13;12.65;;;;;;;;;;5050611;28;20764;-83
2023/04/28 00:33:47;;;;;;;18.38;13.07;;;;;;;;;;5050322;28;20429;-82
2023/04/28 00:36:13;;;;;;;19.10;13.27;;;;;;;;;;5051202;28;20409;-82
2023/04/28 00:38:40;;;;;;;19.38;12.32;;;;;;;;;;5042255;28;20408;-82
2023/04/28 00:41:06;;;;;;;17.52;12.60;;;;;;;;;;5049928;28;20421;-81
2023/04/28 00:43:43;;;;;;;17.92;13.20;;;;;;;;;;5050673;28;20448;-83
2023/04/28 00:46:11;;;;;;;17.35;13.20;;;;;;;;;;5040417;28;20404;-82
2023/04/28 00:48:40;;;;;;;17.90;12.90;;;;;;;;;;5050882;28;20456;-82
2023/04/28 00:51:07;;;;;;;17.70;13.48;;;;;;;;;;5053786;28;20433;-83
2023/04/28 00:53:34;;;;;;;21.10;13.50;;;;;;;;;;5055767;28;20428;-83
2023/04/28 00:56:00;;;;;;;20.50;14.63;;;;;;;;;;5058017;28;20418;-83
2023/04/28 00:58:27;;;;;;;21.90;14.40;;;;;;;;;;5057791;28;20898;-83
2023/04/28 01:01:02;;;;;;;21.27;14.38;;;;;;;;;;5054436;28;20429;-83
2023/04/28 01:03:30;;;;;;;25.20;15.48;;;;;;;;;;5051793;28;20418;-83
2023/04/28 01:05:56;;;;;;;23.67;16.43;;;;;;;;;;5054011;28;20474;-83
2023/04/28 01:08:23;;;;;;;21.00;15.30;;;;;;;;;;5055394;28;20436;-82
2023/04/28 01:10:50;;;;;;;21.50;16.88;;;;;;;;;;5052305;28;20448;-84
2023/04/28 01:13:16;;;;;;;22.92;15.88;;;;;;;;;;5055038;28;20421;-83
2023/04/28 01:15:43;;;;;;;24.02;16.63;;;;;;;;;;5052472;28;20434;-83
2023/04/28 01:18:09;;;;;;;26.10;16.50;;;;;;;;;;5051837;28;20428;-81
2023/04/28 01:20:37;;;;;;;23.92;16.90;;;;;;;;;;5054743;28;20752;-83
2023/04/28 01:23:04;;;;;;;25.65;15.95;;;;;;;;;;5054252;28;20413;-83
2023/04/28 01:25:31;;;;;;;23.58;17.35;;;;;;;;;;5054090;28;20417;-82
2023/04/28 01:27:58;;;;;;;24.10;16.45;;;;;;;;;;5060880;28;20416;-83
2023/04/28 01:30:24;;;;;;;23.77;16.10;;;;;;;;;;5053972;28;20429;-83
2023/04/28 01:32:51;;;;;;;26.33;17.13;;;;;;;;;;5053508;28;20463;-83
2023/04/28 01:35:17;;;;;;;23.80;15.73;;;;;;;;;;5054643;28;20424;-82
2023/04/28 01:37:43;;;;;;;25.25;17.05;;;;;;;;;;5052411;28;20409;-82
2023/04/28 01:40:10;;;;;;;29.05;16.75;;;;;;;;;;5060279;28;20783;-80
2023/04/28 01:42:38;;;;;;;22.52;17.05;;;;;;;;;;5058256;28;20438;-83
2023/04/28 01:45:05;;;;;;;26.23;17.35;;;;;;;;;;5057963;28;20905;-81
2023/04/28 01:47:31;;;;;;;27.58;16.48;;;;;;;;;;5053795;28;20465;-83
2023/04/28 01:49:57;;;;;;;26.50;18.83;;;;;;;;;;5054720;28;20417;-82
2023/04/28 01:52:24;;;;;;;25.08;17.40;;;;;;;;;;5053933;28;20418;-83
2023/04/28 01:54:50;;;;;;;25.02;16.50;;;;;;;;;;5054198;28;20433;-81
2023/04/28 01:57:17;;;;;;;28.23;17.35;;;;;;;;;;5053703;28;20471;-82
2023/04/28 01:59:45;;;;;;;25.38;16.52;;;;;;;;;;5054429;28;20413;-82
2023/04/28 02:02:12;;;;;;;25.45;17.30;;;;;;;;;;5049442;28;20938;-82
2023/04/28 02:04:40;;;;;;;24.27;17.00;;;;;;;;;;5051582;28;20481;-83
2023/04/28 02:07:08;;;;;;;23.60;17.20;;;;;;;;;;5053517;28;20417;-82
2023/04/28 02:09:35;;;;;;;25.27;17.00;;;;;;;;;;5052793;28;20497;-82
2023/04/28 02:12:02;;;;;;;27.23;17.67;;;;;;;;;;5044443;28;20904;-82
2023/04/28 02:14:31;;;;;;;25.92;16.70;;;;;;;;;;5051035;28;20470;-82
2023/04/28 02:16:58;;;;;;;26.37;17.20;;;;;;;;;;5053051;28;20471;-81
2023/04/28 02:19:25;;;;;;;23.80;16.70;;;;;;;;;;5054982;28;20776;-83
2023/04/28 02:21:55;;;;;;;25.90;16.92;;;;;;;;;;5051130;28;20775;-83
2023/04/28 02:24:21;;;;;;;26.48;18.27;;;;;;;;;;5053538;28;20778;-83
2023/04/28 02:26:47;;;;;;;24.08;16.08;;;;;;;;;;5053397;28;20533;-83
2023/04/28 02:29:14;;;;;;;24.70;16.65;;;;;;;;;;5053969;28;20866;-82
2023/04/28 02:31:42;;;;;;;23.75;15.98;;;;;;;;;;5053798;28;20783;-82
2023/04/28 02:34:10;;;;;;;27.50;16.95;;;;;;;;;;5051882;28;20429;-82
2023/04/28 02:36:36;;;;;;;22.63;16.05;;;;;;;;;;5053217;28;20441;-82
2023/04/28 02:39:03;;;;;;;25.88;15.55;;;;;;;;;;5052235;28;20405;-83
2023/04/28 02:41:30;;;;;;;24.40;15.80;;;;;;;;;;5050816;28;20915;-83
2023/04/28 02:43:56;;;;;;;23.17;16.15;;;;;;;;;;5053411;28;20923;-82
2023/04/28 02:46:23;;;;;;;24.08;16.15;;;;;;;;;;5051396;28;20406;-82
2023/04/28 02:48:49;;;;;;;26.10;16.30;;;;;;;;;;5049447;28;20475;-82
2023/04/28 02:51:17;;;;;;;23.60;16.10;;;;;;;;;;5052653;28;20405;-81
2023/04/28 02:53:44;;;;;;;20.60;14.75;;;;;;;;;;5051955;28;20413;-81
2023/04/28 02:56:10;;;;;;;23.63;15.43;;;;;;;;;;5053576;28;20513;-81
2023/04/28 02:58:37;;;;;;;23.13;16.45;;;;;;;;;;5053324;28;20417;-81
2023/04/28 03:01:03;;;;;;;26.63;15.93;;;;;;;;;;5051710;28;20432;-81
2023/04/28 03:03:30;;;;;;;22.30;16.02;;;;;;;;;;5052702;28;20783;-83
2023/04/28 03:05:56;;;;;;;23.23;15.63;;;;;;;;;;5052807;28;20787;-84
2023/04/28 03:08:24;;;;;;;23.35;15.65;;;;;;;;;;5051989;28;20479;-83
2023/04/28 03:10:50;;;;;;;21.95;15.35;;;;;;;;;;5068324;28;20417;-83
2023/04/28 03:13:17;;;;;;;23.80;15.20;;;;;;;;;;5052628;28;20433;-82
2023/04/28 03:15:43;;;;;;;21.90;15.35;;;;;;;;;;5048900;28;20437;-81
2023/04/28 03:18:10;;;;;;;23.05;16.00;;;;;;;;;;5044994;28;20426;-82
2023/04/28 03:20:36;;;;;;;21.45;15.45;;;;;;;;;;5051380;28;20420;-82
2023/04/28 03:23:03;;;;;;;20.70;15.70;;;;;;;;;;5049169;28;20441;-82
2023/04/28 03:25:31;;;;;;;20.60;14.65;;;;;;;;;;5052737;28;20805;-83
2023/04/28 03:27:57;;;;;;;21.70;14.73;;;;;;;;;;5050749;28;20918;-80
2023/04/28 03:30:24;;;;;;;23.95;16.02;;;;;;;;;;5047389;28;20497;-83
2023/04/28 03:32:50;;;;;;;21.60;14.90;;;;;;;;;;5048865;28;20424;-82
2023/04/28 03:35:16;;;;;;;22.55;14.98;;;;;;;;;;5052469;28;20777;-81
2023/04/28 03:37:43;;;;;;;21.73;14.85;;;;;;;;;;5049150;28;20425;-83
2023/04/28 03:40:10;;;;;;;20.92;15.18;;;;;;;;;;5051833;28;20425;-83
2023/04/28 03:42:38;;;;;;;19.63;13.90;;;;;;;;;;5051896;28;20992;-82
2023/04/28 03:45:04;;;;;;;20.75;13.55;;;;;;;;;;5051644;28;20428;-83
2023/04/28 03:47:31;;;;;;;17.83;12.88;;;;;;;;;;5051526;28;20425;-83
2023/04/28 03:49:58;;;;;;;19.42;13.55;;;;;;;;;;5045721;28;20434;-83
2023/04/28 03:52:24;;;;;;;19.58;14.07;;;;;;;;;;5052371;28;20427;-83
2023/04/28 03:54:51;;;;;;;19.98;12.98;;;;;;;;;;5052819;28;20435;-83
2023/04/28 03:57:18;;;;;;;18.00;13.52;;;;;;;;;;5051821;28;20453;-83
2023/04/28 03:59:46;;;;;;;18.15;12.90;;;;;;;;;;5047991;28;20908;-83
2023/04/28 04:02:13;;;;;;;17.95;13.10;;;;;;;;;;5051886;28;20417;-83
2023/04/28 04:04:39;;;;;;;19.45;13.23;;;;;;;;;;5049133;28;20409;-82
2023/04/28 04:07:06;;;;;;;16.77;12.30;;;;;;;;;;5052244;28;20421;-83
2023/04/28 04:09:32;;;;;;;17.95;12.57;;;;;;;;;;5050843;28;20421;-83
2023/04/28 04:11:59;;;;;;;17.80;12.70;;;;;;;;;;5052383;28;20416;-82
2023/04/28 04:14:27;;;;;;;19.52;12.93;;;;;;;;;;5052337;28;20428;-82
2023/04/28 04:16:55;;;;;;;16.40;12.25;;;;;;;;;;5051426;28;20414;-82
2023/04/28 04:19:22;;;;;;;19.38;12.55;;;;;;;;;;5051830;28;20405;-82
2023/04/28 04:21:49;;;;;;;18.27;12.43;;;;;;;;;;5049698;28;20858;-83
2023/04/28 04:24:15;;;;;;;20.20;12.30;;;;;;;;;;5052783;28;20420;-83
2023/04/28 04:26:42;;;;;;;17.05;12.05;;;;;;;;;;5054129;28;20922;-83
2023/04/28 04:29:08;;;;;;;15.90;11.10;;;;;;;;;;5043791;28;20475;-82
2023/04/28 04:31:35;;;;;;;13.80;10.82;;;;;;;;;;5049105;28;20910;-82
2023/04/28 04:34:03;;;;;;;15.77;11.70;;;;;;;;;;5053348;28;20435;-83
2023/04/28 04:36:30;;;;;;;17.73;11.50;;;;;;;;;;5054629;28;20416;-83
2023/04/28 04:38:56;;;;;;;16.30;11.50;;;;;;;;;;5054630;28;20436;-83
2023/04/28 04:41:23;;;;;;;16.65;10.75;;;;;;;;;;5050400;28;20775;-82
2023/04/28 04:43:49;;;;;;;16.92;10.68;;;;;;;;;;5054315;28;20425;-82
2023/04/28 04:46:15;;;;;;;15.68;11.00;;;;;;;;;;5051368;28;20417;-83
2023/04/28 04:48:42;;;;;;;14.20;10.98;;;;;;;;;;5048385;28;20421;-83
2023/04/28 04:51:10;;;;;;;16.00;9.90;;;;;;;;;;5052509;28;20759;-83
2023/04/28 04:53:36;;;;;;;15.23;10.35;;;;;;;;;;5070552;28;20417;-83
2023/04/28 04:56:03;;;;;;;17.02;10.35;;;;;;;;;;5048435;28;20440;-83
2023/04/28 04:58:30;;;;;;;14.50;10.20;;;;;;;;;;5055279;28;20416;-82
2023/04/28 05:00:56;;;;;;;14.60;9.98;;;;;;;;;;5054622;28;20413;-83
2023/04/28 05:03:23;;;;;;;14.35;9.70;;;;;;;;;;5053614;28;20508;-83
2023/04/28 05:05:50;;;;;;;14.50;9.20;;;;;;;;;;5052838;28;20417;-82
2023/04/28 05:08:17;;;;;;;14.15;9.57;;;;;;;;;;5055246;28;20443;-83
2023/04/28 05:10:44;;;;;;;12.40;8.90;;;;;;;;;;5053363;28;20903;-83
2023/04/28 05:13:10;;;;;;;11.40;9.23;;;;;;;;;;5054402;28;20425;-83
2023/04/28 05:15:36;;;;;;;12.48;8.75;;;;;;;;;;5059530;28;20416;-83
2023/04/28 05:18:08;;;;;;;11.10;8.90;;;;;;;;;;5053689;28;20449;-83
2023/04/28 05:20:35;;;;;;;11.90;8.32;;;;;;;;;;5048526;28;20417;-83
2023/04/28 05:23:01;;;;;;;11.10;8.50;;;;;;;;;;5047256;28;20461;-81
2023/04/28 05:25:29;;;;;;;9.80;7.78;;;;;;;;;;5055873;28;20405;-84
2023/04/28 05:27:56;;;;;;;13.32;7.97;;;;;;;;;;5050821;28;20448;-84
2023/04/28 05:30:22;;;;;;;11.93;8.35;;;;;;;;;;5051423;28;20433;-84
2023/04/28 05:32:48;;;;;;;10.35;7.53;;;;;;;;;;5043088;28;20430;-82
2023/04/28 05:35:15;;;;;;;11.60;8.05;;;;;;;;;;5068935;28;20401;-84
2023/04/28 05:37:43;;;;;;;12.10;8.30;;;;;;;;;;5054208;28;20487;-84
2023/04/28 05:40:10;;;;;;;12.88;8.52;;;;;;;;;;5052970;28;20436;-82
2023/04/28 05:42:38;;;;;;;14.07;8.55;;;;;;;;;;5051639;28;20421;-81
2023/04/28 05:45:06;;;;;;;11.03;8.43;;;;;;;;;;5056825;28;20898;-81
2023/04/28 05:47:33;;;;;;;9.15;7.32;;;;;;;;;;5047673;28;20430;-82
2023/04/28 05:49:59;;;;;;;12.35;7.82;;;;;;;;;;5054300;28;20418;-83
2023/04/28 05:52:26;;;;;;;11.63;8.20;;;;;;;;;;5053585;28;20417;-77
2023/04/28 05:54:52;;;;;;;10.52;7.78;;;;;;;;;;5052690;28;20413;-78
2023/04/28 05:57:18;;;;;;;11.07;8.33;;;;;;;;;;5051216;28;20927;-81
2023/04/28 05:59:46;;;;;;;11.65;8.40;;;;;;;;;;5043801;28;20415;-82
2023/04/28 06:02:13;;;;;;;9.82;7.65;;;;;;;;;;5052335;28;20417;-80
2023/04/28 06:04:39;;;;;;;10.77;7.70;;;;;;;;;;5051011;28;20425;-81
2023/04/28 06:07:05;;;;;;;9.52;7.30;;;;;;;;;;5048334;28;20432;-81
2023/04/28 06:09:32;;;;;;;9.98;7.50;;;;;;;;;;5050102;28;20433;-81
2023/04/28 06:11:58;;;;;;;10.43;7.22;;;;;;;;;;5052994;28;20448;-81
2023/04/28 06:14:24;;;;;;;13.15;7.97;;;;;;;;;;5051425;28;20429;-79
2023/04/28 06:16:52;;;;;;;11.60;7.18;;;;;;;;;;5051031;28;20437;-81
2023/04/28 06:19:19;;;;;;;10.60;7.38;;;;;;;;;;5050934;28;20740;-81
2023/04/28 06:21:45;;;;;;;9.77;7.83;;;;;;;;;;5049167;28;20431;-79
2023/04/28 06:24:11;;;;;;;10.25;7.47;;;;;;;;;;5047987;28;20824;-79
2023/04/28 06:26:38;;;;;;;7.82;7.00;;;;;;;;;;5049671;28;20984;-80
2023/04/28 06:29:04;;;;;;;11.18;7.00;;;;;;;;;;5050198;28;20425;-79
2023/04/28 06:31:31;;;;;;;10.85;7.47;;;;;;;;;;5046994;28;20434;-79
2023/04/28 06:33:58;;;;;;;9.73;6.40;;;;;;;;;;5050298;28;20456;-81
2023/04/28 06:36:25;;;;;;;8.55;6.47;;;;;;;;;;5048133;28;20798;-79
2023/04/28 06:38:51;;;;;;;10.85;7.07;;;;;;;;;;5050981;28;20421;-79
2023/04/28 06:41:18;;;;;;;8.43;6.22;;;;;;;;;;5051932;28;20433;-79
2023/04/28 06:43:44;;;;;;;8.45;7.10;;;;;;;;;;5053022;28;20425;-80
2023/04/28 06:46:11;;;;;;;12.45;6.80;;;;;;;;;;5051127;28;20906;-80
2023/04/28 06:48:37;;;;;;;10.30;7.15;;;;;;;;;;5049914;28;20431;-81
2023/04/28 06:51:05;;;;;;;9.38;6.20;;;;;;;;;;5049691;28;20453;-79
2023/04/28 06:53:32;;;;;;;9.45;6.25;;;;;;;;;;5052158;28;20532;-81
2023/04/28 06:55:59;;;;;;;10.90;6.40;;;;;;;;;;5049528;28;20436;-80
2023/04/28 06:58:25;;;;;;;8.52;6.07;;;;;;;;;;5051564;28;20413;-79
2023/04/28 07:00:52;;;;;;;9.40;6.35;;;;;;;;;;5051005;28;20414;-78
2023/04/28 07:03:18;;;;;;;11.50;6.77;;;;;;;;;;5051064;28;20509;-80
2023/04/28 07:05:45;;;;;;;15.07;6.32;;;;;;;;;;5051109;28;20418;-78
2023/04/28 07:08:12;;;;;;;7.10;5.63;;;;;;;;;;5048230;28;20417;-79
2023/04/28 07:10:39;;;;;;;8.55;6.28;;;;;;;;;;5049753;28;20436;-78
2023/04/28 07:13:05;;;;;;;8.70;5.95;;;;;;;;;;5050488;28;20416;-78
2023/04/28 07:15:33;;;;;;;8.60;6.00;;;;;;;;;;5067482;28;20408;-79
2023/04/28 07:17:59;;;;;;;8.98;6.00;;;;;;;;;;5046747;28;20437;-81
2023/04/28 07:20:26;;;;;;;10.60;6.07;;;;;;;;;;5048525;28;20410;-81
2023/04/28 07:22:52;;;;;;;10.55;6.20;;;;;;;;;;5051094;28;20436;-81
2023/04/28 07:25:20;;;;;;;9.90;6.10;;;;;;;;;;5044894;28;20440;-81
2023/04/28 07:27:49;;;;;;;8.55;6.22;;;;;;;;;;5050181;28;20416;-79
2023/04/28 07:30:15;;;;;;;7.90;5.88;;;;;;;;;;5054519;28;20789;-80
2023/04/28 07:32:42;;;;;;;8.40;5.95;;;;;;;;;;5051260;28;20915;-81
2023/04/28 07:35:09;;;;;;;11.07;6.47;;;;;;;;;;5049423;28;20436;-79
2023/04/28 07:37:36;;;;;;;8.00;5.50;;;;;;;;;;5048638;28;20431;-80
2023/04/28 07:40:03;;;;;;;9.48;6.30;;;;;;;;;;5049337;28;20803;-81
2023/04/28 07:42:31;;;;;;;8.43;6.40;;;;;;;;;;5058205;28;20423;-81
2023/04/28 07:44:58;;;;;;;7.60;6.10;;;;;;;;;;5048415;28;20936;-81
2023/04/28 07:47:25;;;;;;;8.20;6.50;;;;;;;;;;5041409;28;20433;-81
2023/04/28 07:49:52;;;;;;;9.57;6.30;;;;;;;;;;5050913;28;20893;-81
2023/04/28 07:52:18;;;;;;;10.73;6.80;;;;;;;;;;5047165;28;20421;-79
2023/04/28 07:54:44;;;;;;;8.60;6.40;;;;;;;;;;5050022;28;20417;-81
2023/04/28 07:57:10;;;;;;;11.40;6.30;;;;;;;;;;5050051;28;20555;-81
2023/04/28 07:59:38;;;;;;;9.40;6.63;;;;;;;;;;5051874;28;20436;-79
2023/04/28 08:02:05;;;;;;;8.35;6.78;;;;;;;;;;5053029;28;20450;-80
2023/04/28 08:04:33;;;;;;;10.60;6.27;;;;;;;;;;5053380;28;20413;-79
2023/04/28 08:06:59;;;;;;;13.25;6.50;;;;;;;;;;5054519;28;20445;-79
2023/04/28 08:09:26;;;;;;;9.05;5.90;;;;;;;;;;5056188;28;20432;-79
2023/04/28 08:11:52;;;;;;;10.27;6.63;;;;;;;;;;5054315;28;20413;-79
2023/04/28 08:14:20;;;;;;;10.95;6.53;;;;;;;;;;5054554;28;20413;-79
2023/04/28 08:16:48;;;;;;;9.00;6.30;;;;;;;;;;5051564;28;20424;-79
2023/04/28 08:19:14;;;;;;;8.65;6.45;;;;;;;;;;5055177;28;20440;-79
2023/04/28 08:21:41;;;;;;;11.43;6.95;;;;;;;;;;5046596;28;20508;-79
2023/04/28 08:24:09;;;;;;;11.23;6.78;;;;;;;;;;5052924;28;20416;-79
2023/04/28 08:26:36;;;;;;;8.30;6.20;;;;;;;;;;5054223;28;20470;-79
2023/04/28 08:29:02;;;;;;;8.30;5.80;;;;;;;;;;5054744;28;20409;-79
2023/04/28 08:31:28;;;;;;;8.13;6.30;;;;;;;;;;5054127;28;20427;-78
2023/04/28 08:33:56;;;;;;;9.02;5.95;;;;;;;;;;5054832;28;20416;-81
2023/04/28 08:36:24;;;;;;;10.30;6.95;;;;;;;;;;5051082;28;20938;-79
2023/04/28 08:38:50;;;;;;;8.67;6.37;;;;;;;;;;5053755;28;20497;-79
2023/04/28 08:41:16;;;;;;;8.30;6.30;;;;;;;;;;5053688;28;20417;-80
2023/04/28 08:43:44;;;;;;;8.20;6.40;;;;;;;;;;5053436;28;20413;-79
2023/04/28 08:46:11;;;;;;;11.15;7.20;;;;;;;;;;5053545;28;20429;-79
2023/04/28 08:48:40;;;;;;;8.77;6.75;;;;;;;;;;5054435;28;20410;-79
2023/04/28 08:51:08;;;;;;;10.82;6.90;;;;;;;;;;5053147;28;20413;-81
2023/04/28 08:53:37;;;;;;;9.77;6.28;;;;;;;;;;5054275;28;20936;-80
2023/04/28 08:56:05;;;;;;;8.73;6.60;;;;;;;;;;5051723;28;20425;-80
2023/04/28 08:58:31;;;;;;;13.55;6.78;;;;;;;;;;5049742;28;20426;-79
2023/04/28 09:00:58;;;;;;;9.85;6.70;;;;;;;;;;5052969;28;20428;-79
2023/04/28 09:03:26;;;;;;;10.23;7.10;;;;;;;;;;5053044;28;20405;-81
2023/04/28 09:05:53;;;;;;;9.77;6.90;;;;;;;;;;5051799;28;20798;-78
2023/04/28 09:08:20;;;;;;;11.30;7.30;;;;;;;;;;5029867;28;20431;-79
2023/04/28 09:10:47;;;;;;;9.20;6.90;;;;;;;;;;5052914;28;20939;-79
2023/04/28 09:13:24;;;;;;;7.97;7.00;;;;;;;;;;5053660;28;20946;-79
2023/04/28 09:15:50;;;;;;;9.93;7.63;;;;;;;;;;5051716;28;20405;-79
2023/04/28 09:18:17;;;;;;;12.02;7.25;;;;;;;;;;5052812;28;20953;-79
2023/04/28 09:20:44;;;;;;;12.93;8.18;;;;;;;;;;5052724;28;20444;-78
2023/04/28 09:23:15;;;;;;;9.68;7.03;;;;;;;;;;5054088;28;20771;-80
2023/04/28 09:25:54;;;;;;;11.20;8.05;;;;;;;;;;5053145;28;20496;-80
2023/04/28 09:28:21;;;;;;;12.40;8.18;;;;;;;;;;5066615;28;20413;-78
2023/04/28 09:30:48;;;;;;;10.85;7.75;;;;;;;;;;5050142;28;20429;-78
2023/04/28 09:33:15;;;;;;;15.15;8.52;;;;;;;;;;5051172;28;21013;-79
2023/04/28 09:35:44;;;;;;;15.43;9.00;;;;;;;;;;5053362;28;20416;-79
2023/04/28 09:38:10;;;;;;;12.65;8.55;;;;;;;;;;5050879;28;20425;-78
2023/04/28 09:40:50;;;;;;;11.45;8.60;;;;;;;;;;5051617;28;20409;-78
2023/04/28 09:43:23;;;;;;;13.68;8.80;;;;;;;;;;5052450;28;20421;-78
2023/04/28 09:45:49;;;;;;;12.00;9.23;;;;;;;;;;5047152;28;20533;-78
2023/04/28 09:48:16;;;;;;;14.18;9.10;;;;;;;;;;5053173;28;20425;-78
2023/04/28 09:50:43;;;;;;;10.17;8.47;;;;;;;;;;5052546;28;20417;-79
2023/04/28 09:53:11;;;;;;;12.75;9.23;;;;;;;;;;5052965;28;20919;-80
2023/04/28 09:55:39;;;;;;;11.80;8.35;;;;;;;;;;5051368;28;20417;-78
2023/04/28 09:58:07;;;;;;;13.13;9.93;;;;;;;;;;5050388;28;20421;-78
2023/04/28 10:00:36;;;;;;;14.68;9.45;;;;;;;;;;5051102;28;20420;-79
2023/04/28 10:03:02;;;;;;;15.80;9.95;;;;;;;;;;5050963;28;20421;-79
2023/04/28 10:05:28;;;;;;;12.73;9.32;;;;;;;;;;5052610;28;20412;-78
2023/04/28 10:07:55;;;;;;;14.60;9.50;;;;;;;;;;5043206;28;20427;-79
2023/04/28 10:10:24;;;;;;;13.45;9.55;;;;;;;;;;5049701;28;20421;-79
2023/04/28 10:12:51;;;;;;;15.15;9.32;;;;;;;;;;5051758;28;20768;-79
2023/04/28 10:15:18;;;;;;;13.20;10.05;;;;;;;;;;5052001;28;20413;-79
2023/04/28 10:17:46;;;;;;;12.60;10.10;;;;;;;;;;5051230;28;20410;-79
2023/04/28 10:20:15;;;;;;;15.88;9.50;;;;;;;;;;5049418;28;20429;-79
2023/04/28 10:22:50;;;;;;;13.35;9.27;;;;;;;;;;5051310;28;20478;-79
2023/04/28 10:25:24;;;;;;;12.10;8.90;;;;;;;;;;5051470;28;20433;-79
2023/04/28 10:27:51;;;;;;;15.40;10.38;;;;;;;;;;5050989;28;20416;-79
2023/04/28 10:30:20;;;;;;;16.35;9.98;;;;;;;;;;5050351;28;20439;-79
2023/04/28 10:32:46;;;;;;;12.38;9.18;;;;;;;;;;5046171;28;20440;-80
2023/04/28 10:35:35;;;;;;;13.60;10.40;;;;;;;;;;5051874;28;20405;-78
2023/04/28 10:38:05;;;;;;;13.33;10.20;;;;;;;;;;5046419;28;20802;-80
2023/04/28 10:40:32;;;;;;;10.73;9.63;;;;;;;;;;5048895;28;20419;-80
2023/04/28 10:42:59;;;;;;;12.60;10.02;;;;;;;;;;5058547;28;20491;-79
2023/04/28 10:45:44;;;;;;;12.33;10.00;;;;;;;;;;5048883;28;20413;-78
2023/04/28 10:48:11;;;;;;;16.93;10.70;;;;;;;;;;5045260;28;20477;-79
2023/04/28 10:50:38;;;;;;;14.30;10.50;;;;;;;;;;5053624;28;20413;-79
2023/04/28 10:53:04;;;;;;;14.02;10.13;;;;;;;;;;5051863;28;20898;-80
2023/04/28 10:55:44;;;;;;;14.65;9.73;;;;;;;;;;5049638;28;20414;-79
2023/04/28 10:58:31;;;;;;;14.68;11.07;;;;;;;;;;5050667;28;20429;-79
2023/04/28 11:01:19;;;;;;;12.07;10.30;;;;;;;;;;5050112;28;20806;-79
2023/04/28 11:03:50;;;;;;;17.40;10.70;;;;;;;;;;5051518;28;20425;-79
2023/04/28 11:06:20;;;;;;;15.13;11.27;;;;;;;;;;5050450;28;20912;-78
2023/04/28 11:08:46;;;;;;;13.40;10.82;;;;;;;;;;5051760;28;20795;-78
2023/04/28 11:11:17;;;;;;;14.50;10.85;;;;;;;;;;5052701;28;20448;-78
2023/04/28 11:13:45;;;;;;;16.60;11.57;;;;;;;;;;5050820;28;20930;-78
2023/04/28 11:16:13;;;;;;;12.33;11.03;;;;;;;;;;5045862;28;20926;-78
2023/04/28 11:18:48;;;;;;;14.15;10.93;;;;;;;;;;5051589;28;20790;-78
2023/04/28 11:21:16;;;;;;;13.27;10.40;;;;;;;;;;5048063;28;20425;-79
2023/04/28 11:23:43;;;;;;;15.10;10.90;;;;;;;;;;5048901;28;20428;-78
2023/04/28 11:26:09;;;;;;;14.15;10.63;;;;;;;;;;5050116;28;20791;-78
2023/04/28 11:28:36;;;;;;;13.00;10.30;;;;;;;;;;5051142;28;20425;-78
2023/04/28 11:31:12;;;;;;;14.10;11.07;;;;;;;;;;5048763;28;20930;-79
2023/04/28 11:33:39;;;;;;;13.80;10.20;;;;;;;;;;5050095;28;21008;-78
2023/04/28 11:36:06;;;;;;;14.20;11.00;;;;;;;;;;5048761;28;20442;-79
2023/04/28 11:38:44;;;;;;;15.45;10.85;;;;;;;;;;5051018;28;20490;-78
2023/04/28 11:41:10;;;;;;;15.53;11.23;;;;;;;;;;5048778;28;20424;-79
2023/04/28 11:43:37;;;;;;;15.43;11.10;;;;;;;;;;5050352;28;20433;-78
2023/04/28 11:46:03;;;;;;;14.63;11.43;;;;;;;;;;5050338;28;20428;-78
2023/04/28 11:48:29;;;;;;;15.07;11.63;;;;;;;;;;5049827;28;20425;-79
2023/04/28 11:50:56;;;;;;;15.55;11.40;;;;;;;;;;5042472;28;20424;-80
2023/04/28 11:53:40;;;;;;;16.93;11.40;;;;;;;;;;5050572;28;20919;-79
2023/04/28 11:56:08;;;;;;;13.80;12.18;;;;;;;;;;5048447;28;20429;-80
2023/04/28 11:58:35;;;;;;;13.68;11.23;;;;;;;;;;5050989;28;20425;-78
2023/04/28 12:01:08;;;;;;;16.40;11.37;;;;;;;;;;5049281;28;20417;-79
2023/04/28 12:03:41;;;;;;;15.35;11.52;;;;;;;;;;5052411;28;20433;-79
2023/04/28 12:06:08;;;;;;;14.23;11.30;;;;;;;;;;5046387;28;20429;-79
2023/04/28 12:08:34;;;;;;;13.73;11.77;;;;;;;;;;5050889;28;20992;-78
2023/04/28 12:11:09;;;;;;;15.37;11.63;;;;;;;;;;5047635;28;20425;-79
2023/04/28 12:13:37;;;;;;;19.10;11.47;;;;;;;;;;5048388;28;20918;-78
2023/04/28 12:16:04;;;;;;;15.95;12.10;;;;;;;;;;5046702;28;20464;-79
2023/04/28 12:18:31;;;;;;;14.87;10.83;;;;;;;;;;5042514;28;20449;-81
2023/04/28 12:20:58;;;;;;;13.90;9.93;;;;;;;;;;5046333;28;20443;-81
2023/04/28 12:23:31;;;;;;;16.50;11.77;;;;;;;;;;5047306;28;20515;-79
2023/04/28 12:25:58;;;;;;;13.63;10.75;;;;;;;;;;5047026;28;20826;-79
2023/04/28 12:28:35;;;;;;;14.35;11.18;;;;;;;;;;5052300;28;20433;-79
2023/04/28 12:31:03;;;;;;;14.38;10.70;;;;;;;;;;5045033;28;20417;-77
2023/04/28 12:33:32;;;;;;;13.43;11.00;;;;;;;;;;5048599;28;20421;-79
2023/04/28 12:36:00;;;;;;;14.05;10.75;;;;;;;;;;5043458;28;20824;-82
2023/04/28 12:38:27;;;;;;;16.23;11.50;;;;;;;;;;5049961;28;20429;-81
2023/04/28 12:40:53;;;;;;;15.43;11.50;;;;;;;;;;5049054;28;20401;-81
2023/04/28 12:43:21;;;;;;;14.18;10.65;;;;;;;;;;5045269;28;20870;-81
2023/04/28 12:45:50;;;;;;;16.30;11.50;;;;;;;;;;5049752;28;20425;-81
2023/04/28 12:48:17;;;;;;;18.02;12.32;;;;;;;;;;5054273;28;20413;-81
2023/04/28 12:50:43;;;;;;;17.13;11.60;;;;;;;;;;5054617;28;20427;-81
2023/04/28 12:53:10;;;;;;;16.73;11.90;;;;;;;;;;5054509;28;20425;-81
2023/04/28 12:55:39;;;;;;;13.73;12.32;;;;;;;;;;5054259;28;20416;-81
2023/04/28 12:58:07;;;;;;;17.00;12.25;;;;;;;;;;5054324;28;20475;-81
2023/04/28 13:00:34;;;;;;;15.20;12.80;;;;;;;;;;5052393;28;20457;-80
2023/04/28 13:03:01;;;;;;;15.50;12.32;;;;;;;;;;5069832;28;20931;-80
2023/04/28 13:05:28;;;;;;;13.77;10.93;;;;;;;;;;5053942;28;20448;-80
2023/04/28 13:08:00;;;;;;;14.13;11.10;;;;;;;;;;5047466;28;20415;-79
2023/04/28 13:10:27;;;;;;;14.35;11.65;;;;;;;;;;5053548;28;21068;-82
2023/04/28 13:12:54;;;;;;;13.55;10.88;;;;;;;;;;5051659;28;20490;-80
2023/04/28 13:15:20;;;;;;;14.85;12.10;;;;;;;;;;5053415;28;20483;-80
2023/04/28 13:17:49;;;;;;;14.25;11.95;;;;;;;;;;5054187;28;20453;-80
2023/04/28 13:20:16;;;;;;;13.60;10.88;;;;;;;;;;5053867;28;20771;-80
2023/04/28 13:22:43;;;;;;;15.95;11.65;;;;;;;;;;5053822;28;20431;-80
2023/04/28 13:25:10;;;;;;;14.07;11.40;;;;;;;;;;5050257;28;20425;-81
2023/04/28 13:27:36;;;;;;;16.80;11.57;;;;;;;;;;5053912;28;20430;-80
2023/04/28 13:30:04;;;;;;;14.80;11.70;;;;;;;;;;5051005;28;20444;-81
2023/04/28 13:32:30;;;;;;;16.92;11.95;;;;;;;;;;5058486;28;20512;-80
2023/04/28 13:34:56;;;;;;;47.28;21.95;;;;;;;;;;5056441;28;20421;-79
2023/04/28 13:37:24;;;;;;;16.00;11.82;;;;;;;;;;5055277;28;20423;-80
2023/04/28 13:39:51;;;;;;;49.05;23.13;;;;;;;;;;5053801;28;20421;-80
2023/04/28 13:42:17;;;;;;;16.37;11.97;;;;;;;;;;5053665;28;20416;-80
2023/04/28 13:44:45;;;;;;;14.15;11.25;;;;;;;;;;5053395;28;20433;-81
2023/04/28 13:47:11;;;;;;;14.00;10.68;;;;;;;;;;5046350;28;20419;-81
2023/04/28 13:49:38;;;;;;;14.75;10.80;;;;;;;;;;5049093;28;20426;-81
2023/04/28 13:52:05;;;;;;;15.60;10.90;;;;;;;;;;5052280;28;20504;-81
2023/04/28 13:54:33;;;;;;;16.80;11.40;;;;;;;;;;5050845;28;20440;-80
2023/04/28 13:57:00;;;;;;;12.93;10.85;;;;;;;;;;5052252;28;20408;-80
2023/04/28 13:59:27;;;;;;;15.65;11.20;;;;;;;;;;5054162;28;20418;-80
2023/04/28 14:01:54;;;;;;;15.82;11.70;;;;;;;;;;5055434;28;20405;-80
2023/04/28 14:04:21;;;;;;;15.15;11.10;;;;;;;;;;5056036;28;20418;-81
2023/04/28 14:06:49;;;;;;;16.60;11.02;;;;;;;;;;5052555;28;20417;-81
2023/04/28 14:09:15;;;;;;;15.50;11.90;;;;;;;;;;5052457;28;20429;-81
2023/04/28 14:11:45;;;;;;;16.95;11.60;;;;;;;;;;5052312;28;20413;-81
2023/04/28 14:14:11;;;;;;;16.33;11.25;;;;;;;;;;5053188;28;20413;-81
2023/04/28 14:16:37;;;;;;;12.93;10.60;;;;;;;;;;5049734;28;20419;-81
2023/04/28 14:19:04;;;;;;;11.80;10.57;;;;;;;;;;5052909;28;20417;-80
2023/04/28 14:21:30;;;;;;;12.18;10.27;;;;;;;;;;5048358;28;20787;-80
2023/04/28 14:23:57;;;;;;;12.85;11.02;;;;;;;;;;5053097;28;20787;-81
2023/04/28 14:26:24;;;;;;;14.13;11.18;;;;;;;;;;5050569;28;20433;-81